24°C Temp
14°C Dewpoint
54% Humidity
Temperature
14 KM/H
9 MPH
8 KTS
90°
Due East

Wind Speed
Mostly Scattered
Clouds
Pressure 1016.92 (hPa) - 30.03 (in)
Visibility 6.2 (mi) - 10.0 (km)

Current Conditions
SAEZ
Location 120km(km)
Metar :SAEZ 021500Z 09008KT 9999 SCT038 24/14 Q1017 NOSIG RMK PP000
Thu 2nd December 12:00 pm

Airport
  Metar Aviation API Data Provided by https://www.checkwx.com/ PHP scripts by weather34.com ©2021